Airfield :
LOGIN :

Register | Disclaimer

   EN    FR    IT 

 










Legend :    VFR   Marginal VFR   IFR   Intensive IFR   Very Intensive IFR
Visi :
Ceiling :
>= 8 km
>= 3000ft
5 to 8 km
1000 to 3000 ft
1500m to 5 km
500 to 1000 ft
800 to 1500m
200 to 500 ft
< 800m
< 200 ft
Symbols :   Thunderstorms  Fog  Heavy snow  Heavy precipitations  Wind > 20 kt
SIGMETs :     Misc.  Thunderstorms  Icing  Turbulence  Mountain Waves  Volcanic Ashes







- Airport Elevation : 184 ft
- IATA code : BRU


EBBR - Bruxelles

CURRENT METAR :
  • 181620Z 17002KT 7000 FEW012 01/00 Q1019 NOSIG

EXPIRED METARs :
  • 181550Z 16002KT 7000 FEW012 02/01 Q1019 NOSIG
  • 181520Z 16002KT 6000 FEW012 02/01 Q1019 NOSIG
  • 181450Z 17003KT 6000 FEW012 02/01 Q1019 NOSIG
  • 181420Z 16005KT 5000 BR FEW005 BKN008 02/01 Q1019 TEMPO 3500 BR BKN005
  • 181350Z 17008KT 4200 BR FEW004 BKN007 02/01 Q1019 TEMPO 3000 BR BKN004

TAF TAF EBBR
Valid from the 18 at 12:00 until the 19 at 18:00 UTC


181110Z 1812/1918 16005KT 6000 NSW FEW005
PROB30
TEMPO 1812/1814 2500 BR BKN005
No reported NOTAMs for that airfield.



MET'MAP, your aeronautical weather chart ! - Copyright ORBIFLY December 2007 - Disclaimer

ORBIFLY MET'MAP TEAM :

Programming & Development : Alexandra Zaïnal
Concept & Development : Baudouin d'Aumeries
Co-Development & Prog : Marc-Olivier Méhu
Technical & hardware support : Manuel Goepfert

Contact : metmap@orbifly.com




SOURCES & CREDITS :

   NOAA